Terminal Aerodrome Forecast
Issued by NWS

Home | Current Version | Previous Version | Text Only | Print | Product List | Glossary On
Versions: 1 2 3 4 5 6 7 8 9 10 11 12 13
000
FTUS46 KEKA 262333
TAFUKI
TAF
KUKI 262333Z 2700/2724 15005KT P6SM BKN200
     FM271000 VRB03KT P6SM SCT100 BKN200
     FM272300 16009KT P6SM -RA SCT050 BKN090 OVC200=

USA.gov is the U.S. government's official web portal to all federal, state and local government web resources and services.